createdAt,value
2023-03-06T00:00:50.824Z,974.5
2023-03-06T00:20:08.306Z,974.3
2023-03-06T00:39:26.350Z,974.2
2023-03-06T00:58:43.179Z,974
2023-03-06T01:18:01.831Z,973.8
2023-03-06T01:37:20.468Z,973.5
2023-03-06T01:56:37.326Z,973.4
2023-03-06T02:15:53.396Z,973.2
2023-03-06T02:35:10.583Z,973.1
2023-03-06T02:54:26.719Z,972.8
2023-03-06T03:13:51.209Z,972.7
2023-03-06T03:33:10.243Z,972.6
2023-03-06T03:52:23.319Z,972.4
2023-03-06T04:11:40.220Z,972.3
2023-03-06T04:30:58.897Z,972
2023-03-06T04:50:16.727Z,972
2023-03-06T05:09:38.309Z,971.8
2023-03-06T05:28:54.469Z,971.7
2023-03-06T05:48:12.850Z,971.7
2023-03-06T06:07:30.721Z,971.7
2023-03-06T06:26:48.750Z,971.8
2023-03-06T06:47:24.384Z,971.7
2023-03-06T07:06:08.038Z,971.7
2023-03-06T07:25:28.150Z,971.6
2023-03-06T07:44:45.915Z,971.7
2023-03-06T08:04:02.844Z,971.7
2023-03-06T08:23:20.944Z,971.8
2023-03-06T08:42:39.964Z,971.9
2023-03-06T09:02:01.522Z,971.9
2023-03-06T09:21:17.603Z,972
2023-03-06T09:40:35.168Z,972.1
2023-03-06T09:59:53.476Z,972
2023-03-06T10:19:12.604Z,971.9
2023-03-06T10:38:30.177Z,971.9
2023-03-06T10:57:49.361Z,971.8
2023-03-06T11:17:06.662Z,971.9
2023-03-06T11:36:27.394Z,971.8
2023-03-06T11:55:44.956Z,971.7
2023-03-06T12:15:04.478Z,971.7
2023-03-06T12:34:22.898Z,971.6
2023-03-06T12:53:41.210Z,971.6
2023-03-06T13:13:02.654Z,971.5
2023-03-06T13:32:23.751Z,971.4
2023-03-06T13:51:44.243Z,971.3
2023-03-06T14:11:04.180Z,971.2
2023-03-06T14:30:26.630Z,971
2023-03-06T14:49:41.866Z,971
2023-03-06T15:08:59.681Z,970.9
2023-03-06T15:28:17.969Z,970.9
2023-03-06T15:47:35.388Z,970.8
2023-03-06T16:06:50.265Z,970.8
2023-03-06T16:26:09.740Z,970.7
2023-03-06T16:45:26.649Z,970.6
2023-03-06T17:04:45.573Z,970.6
2023-03-06T17:24:04.965Z,970.5
2023-03-06T17:43:22.276Z,970.5
2023-03-06T18:02:41.682Z,970.3
2023-03-06T18:22:00.572Z,970.3
2023-03-06T18:41:19.263Z,970.1
2023-03-06T19:00:37.330Z,970
2023-03-06T19:19:56.000Z,969.8
2023-03-06T19:39:14.895Z,969.8
2023-03-06T19:58:32.347Z,969.6
2023-03-06T20:17:51.018Z,969.4
2023-03-06T20:37:12.433Z,969.2
2023-03-06T20:56:28.193Z,969.3
2023-03-06T21:15:47.791Z,968.9
2023-03-06T21:35:06.107Z,968.8
2023-03-06T21:54:22.217Z,968.6
2023-03-06T22:13:40.369Z,968.3
2023-03-06T22:32:59.703Z,968
2023-03-06T22:52:17.810Z,967.7
2023-03-06T23:11:37.478Z,967.5
2023-03-06T23:30:55.171Z,967.3
2023-03-06T23:50:13.573Z,967
